METAR Data
IDs: Format: Raw Decoded Include TAF

Data at: 2131 UTC 18 Sep 2018

KXVG 182118Z AUTO 00000KT 10SM OVC030 17/11 A3002 RMK AO2
KXVG 182059Z AUTO 00000KT 10SM OVC028 17/12 A3002 RMK AO2
KXVG 182038Z AUTO 00000KT 10SM OVC026 17/12 A3001 RMK AO2
KXVG 182021Z AUTO 00000KT 10SM OVC026 17/12 A3001 RMK AO2
KXVG 181958Z AUTO 00000KT 10SM OVC029 17/11 A3000 RMK AO2
KXVG 181933Z AUTO 00000KT 10SM OVC027 17/11 A3001 RMK AO2
KXVG 181918Z AUTO 07005KT 10SM OVC027 17/11 A3001 RMK AO2
KXVG 181857Z AUTO 00000KT 10SM OVC027 17/12 A3001 RMK AO2
KXVG 181837Z AUTO 03003KT 10SM OVC029 17/11 A3002 RMK AO2
KXVG 181818Z AUTO 00000KT 10SM SCT025 BKN031 16/11 A3002 RMK AO2
KXVG 181753Z AUTO 00000KT 10SM OVC023 16/12 A3002 RMK AO2
KXVG 181738Z AUTO 07003KT 10SM OVC023 16/11 A3002 RMK AO2
KXVG 181713Z AUTO 10003KT 10SM OVC026 17/11 A3002 RMK AO2
KXVG 181659Z AUTO 00000KT 10SM SCT018 OVC026 16/12 A3003 RMK AO2
KXVG 181635Z AUTO 00000KT 10SM BKN018 OVC026 15/12 A3003 RMK AO2
KXVG 181618Z AUTO 00000KT 10SM SCT014 OVC026 15/13 A3003 RMK AO2
KXVG 181558Z AUTO 00000KT 10SM SCT011 SCT017 OVC024 14/12 A3003 RMK AO2
KXVG 181538Z AUTO 00000KT 10SM SCT009 OVC020 13/12 A3003 RMK AO2
KXVG 181518Z AUTO 00000KT 10SM BKN007 OVC018 13/12 A3002 RMK AO2
KXVG 181459Z AUTO 00000KT 5SM BR BKN007 OVC018 13/12 A3002 RMK AO2
KXVG 181321Z AUTO 00000KT 10SM SCT007 OVC015 12/11 A3002 RMK AO2
KXVG 181253Z AUTO 00000KT 5SM BR OVC005 11/11 A3001 RMK AO2
KXVG 181233Z AUTO 00000KT 10SM OVC007 11/11 A3002 RMK AO2
KXVG 181200Z AUTO 00000KT 10SM OVC007 11/11 A3001 RMK AO2
KXVG 181138Z AUTO 04003KT 10SM OVC007 11/11 A2999 RMK AO2
KXVG 181121Z AUTO 00000KT 10SM OVC009 10/10 A2999 RMK AO2
KXVG 181053Z AUTO 00000KT 10SM CLR 08/08 A2998 RMK AO2
KXVG 181038Z AUTO 00000KT 10SM SCT013 SCT080 08/08 A2998 RMK AO2
KXVG 181016Z AUTO 00000KT 10SM SCT013 BKN080 09/08 A3002 RMK AO2
KXVG 180959Z AUTO 00000KT 10SM SCT080 08/08 A3001 RMK AO2
KXVG 180938Z AUTO 00000KT 10SM BKN080 09/08 A2999 RMK AO2 LTG DSNT SE
KXVG 180837Z AUTO 00000KT 10SM BKN080 08/08 A3001 RMK AO2 LTG DSNT S
KXVG 180815Z AUTO 00000KT 10SM CLR 08/08 A3000 RMK AO2
KXVG 180724Z AUTO 00000KT 10SM BKN090 09/09 A3001 RMK AO2
KXVG 180557Z AUTO 00000KT 10SM CLR 08/07 A3001 RMK AO2
KXVG 180540Z AUTO 00000KT 10SM SCT100 08/07 A3001 RMK AO2 LTG DSNT SE
KXVG 180516Z AUTO 00000KT 10SM CLR 08/07 A3002 RMK AO2
KXVG 180457Z AUTO 00000KT 10SM CLR 08/08 A3002 RMK AO2 LTG DSNT SE
KXVG 180439Z AUTO 00000KT 10SM CLR 08/08 A3002 RMK AO2
KXVG 180413Z AUTO 00000KT 10SM CLR 08/07 A3002 RMK AO2
KXVG 180359Z AUTO 00000KT 10SM CLR 08/08 A3002 RMK AO2
KXVG 180333Z AUTO 00000KT 10SM CLR 09/08 A3002 RMK AO2
KXVG 180317Z AUTO 00000KT 10SM CLR 09/09 A3002 RMK AO2
KXVG 180304Z AUTO 00000KT 10SM CLR 09/08 A3002 RMK AO2
KXVG 180200Z AUTO 00000KT 10SM CLR 09/09 A3001 RMK AO2
KXVG 180137Z AUTO 00000KT 10SM CLR 10/09 A3001 RMK AO2
KXVG 180113Z AUTO 00000KT 10SM CLR 10/09 A3000 RMK AO2
KXVG 180056Z AUTO 00000KT 10SM CLR 10/09 A3000 RMK AO2
KXVG 180040Z AUTO 00000KT 10SM CLR 11/09 A3000 RMK AO2
KXVG 180018Z AUTO 00000KT 10SM CLR 12/10 A2999 RMK AO2
KXVG 172353Z AUTO 00000KT 10SM CLR 14/10 A3000 RMK AO2
KXVG 172340Z AUTO 00000KT 10SM CLR 14/10 A2999 RMK AO2
KXVG 172316Z AUTO 06003KT 10SM CLR 15/10 A2999 RMK AO2
KXVG 172258Z AUTO 03004KT 10SM CLR 15/09 A2999 RMK AO2
KXVG 172235Z AUTO 03003KT 10SM CLR 15/09 A3000 RMK AO2
KXVG 172213Z AUTO 02006KT 10SM CLR 15/10 A3001 RMK AO2
KXVG 172158Z AUTO 01003KT 10SM CLR 15/09 A3001 RMK AO2
KXVG 172135Z AUTO 33003KT 10SM CLR 14/09 A3002 RMK AO2
KXVG 172117Z AUTO 00000KT 10SM SCT021 14/09 A3002 RMK AO2
KXVG 172059Z AUTO 02005KT 10SM BKN021 14/09 A3002 RMK AO2
KXVG 172033Z AUTO 05003KT 10SM BKN021 14/09 A3002 RMK AO2
KXVG 172017Z AUTO 00000KT 10SM OVC021 13/09 A3003 RMK AO2
KXVG 171953Z AUTO 00000KT 10SM OVC021 13/08 A3002 RMK AO2
KXVG 171933Z AUTO 00000KT 10SM OVC021 13/09 A3003 RMK AO2
KXVG 171918Z AUTO 20004KT 10SM BKN021 13/09 A3004 RMK AO2
KXVG 171858Z AUTO 31004KT 10SM SCT021 12/08 A3002 RMK AO2 LTG DSNT SE
KXVG 171837Z AUTO 34005KT 10SM SCT019 12/08 A3000 RMK AO2 LTG DSNT SE
KXVG 171813Z AUTO 34004KT 10SM SCT019 12/08 A3000 RMK AO2 LTG DSNT S
KXVG 171718Z AUTO 00000KT 10SM CLR 12/08 A3003 RMK AO2 LTG DSNT S
KXVG 171657Z AUTO 00000KT 10SM SCT015 11/08 A3000 RMK AO2
KXVG 171557Z AUTO 36005KT 10SM OVC015 12/08 A3000 RMK AO2
KXVG 171536Z AUTO 36009G15KT 10SM OVC013 12/08 A3000 RMK AO2
KXVG 171518Z AUTO 32007G15KT 280V010 10SM OVC013 11/08 A3002 RMK AO2
KXVG 171458Z AUTO 33006KT 10SM OVC013 11/08 A3003 RMK AO2
KXVG 171439Z AUTO 33006KT 10SM OVC013 11/08 A3001 RMK AO2
KXVG 171419Z AUTO 34006KT 10SM OVC011 11/08 A3000 RMK AO2
KXVG 171400Z AUTO 33005KT 10SM OVC009 11/08 A3001 RMK AO2
KXVG 171337Z AUTO 34004KT 10SM OVC011 11/09 A2999 RMK AO2
KXVG 171323Z AUTO 33005KT 10SM OVC011 11/08 A2999 RMK AO2
KXVG 171253Z AUTO 36005KT 10SM OVC011 11/08 A2999 RMK AO2
KXVG 171233Z AUTO 33006KT 10SM OVC013 11/08 A2998 RMK AO2
KXVG 171219Z AUTO 32004KT 10SM OVC013 11/08 A2997 RMK AO2
KXVG 171153Z AUTO 32005KT 10SM OVC015 11/08 A2996 RMK AO2
KXVG 171139Z AUTO 32004KT 10SM BKN015 10/08 A2996 RMK AO2
KXVG 171117Z AUTO 30005KT 10SM SCT017 11/08 A2996 RMK AO2
KXVG 171103Z AUTO 33003KT 10SM SCT017 11/08 A2995 RMK AO2
KXVG 171033Z AUTO 31005KT 10SM BKN015 11/09 A2994 RMK AO2
KXVG 171018Z AUTO 32005KT 10SM OVC015 11/09 A2994 RMK AO2
KXVG 170958Z AUTO 32005KT 10SM OVC015 12/09 A2994 RMK AO2
KXVG 170933Z AUTO 32004KT 10SM BKN015 12/10 A2993 RMK AO2